Главная страница
METAR-TAF:

METAR-TAF

Аэропорты :

Керманшах, Иран

широта: 34-16N, долгота: 047-07E, высота над уровнем моря: 1320 м

Текущие метеонаблюдения

Эта сводка был подготовлена 48 минут назад, в 19:00 UTC
Ветер 6 Узел от западно-северо-западный
Температура 22°C
Влажность 20%
Давление 1016 hPa
Видимость 10 км и более
Нет облачности ниже 1500 м, и нет кучево-дождевой облачности

METAR: OICC 171900Z 29006KT CAVOK 22/M02 Q1015 A2999

Время: 00:18 (19:48 UTC)

Прогноз

Эта сводка был подготовлена 2 часа и 18 минут назад, в 17:30 UTC
Прогноз действительный с 17-го 18 UTC до 18-го 03 UTC
Ветер 6 Узел от западный
Видимость 10 км и более
Нет облачности ниже 1500 м, и нет кучево-дождевой облачности

TAF: OICC 171730Z 1718/1803 28006KT CAVOK

Метеонаблюдения и прогнозы для более 4000 аэропортов (сводки METAR и TAF).

Имеющиеся станции представлены на карте желтыми и красными точками.

Чтобы увидеть название станции, наведите на нее мышь.

Затем щелкните, чтобы увидеть метеонаблюдения и метеопрогнозы.

Управление картой: чтобы увеличить масштаб, щелкните зеленые кнопки с черным крестиком; чтобы уменьшить масштаб, щелкните зеленую кнопку с тире; для просмотра соседних карт щелкайте зеленые стрелки.


METAR-TAF: